Weather History for Ironwood, MI

Change the Weather History Date:

Thursday, October 20, 2011

  Actual Average Record
Temperature  
Mean Temperature 37 °F -  
Max Temperature 39 °F 48 °F 71 °F (2003)
Min Temperature 35 °F 34 °F 28 °F (1999)
Degree Days  
Heating Degree Days 28    
Moisture  
Dew Point 34 °F    
Average Humidity 85    
Maximum Humidity 100    
Minimum Humidity 48    
Precipitation  
Precipitation 0.05 in - - ()
Sea Level Pressure  
Sea Level Pressure 29.89 in    
Wind  
Wind Speed 11 mph (North)    
Max Wind Speed 15 mph    
Max Gust Speed 29 mph    
Visibility 10 miles    
Events      
Averages and records for this station are not official NWS values.
T = Trace of Precipitation, MM = Missing Value Source: NWS Daily Summary

Daily Weather History Graph

Daily Weather History Graph

Search for Another Location

Airport:

Trip Planner

Search our weather history database for the weather conditions in past years. The results will help you decide how hot, cold, wet, or windy it might be!

Date:

Astronomy

Oct. 20, 2011 Rise Set
Actual Time 7:24 AM CDT 6:05 PM CDT
Civil Twilight 6:53 AM CDT 6:35 PM CDT
Nautical Twilight 6:18 AM CDT 7:10 PM CDT
Astronomical Twilight 5:43 AM CDT 7:45 PM CDT
Moon No Moon Rise 2:37 PM CDT (10/20)
Length of Visible Light 11h 41m
Length of Day
10h 40m
Last Quarter, 44% of the Moon is Illuminated
Oct 20
Last Quarter
Oct 26
New
Nov 2
First Quarter
Nov 10
Full
Nov 18
Last Quarter

Hourly Weather History & Observations

Time (CDT) Temp. Windchill Dew Point Humidity Pressure Visibility Wind Dir Wind Speed Gust Speed Precip Events Conditions
12:15 AM 39.2 °F 32.0 °F 37.4 °F 93% 29.97 in 10.0 mi NNE 11.5 mph 23.0 mph N/A   Mostly Cloudy
12:35 AM 39.2 °F 32.0 °F 35.6 °F 87% 29.97 in 9.0 mi NNE 11.5 mph 20.7 mph N/A   Overcast
12:55 AM 39.2 °F 32.5 °F 35.6 °F 87% 29.97 in 10.0 mi NNE 10.4 mph 20.7 mph N/A   Overcast
1:35 AM 39.2 °F 30.8 °F 37.4 °F 93% 29.95 in 10.0 mi NNE 15.0 mph 23.0 mph 0.01 in   Overcast
1:55 AM 39.2 °F 32.0 °F 37.4 °F 93% 29.95 in 8.0 mi NNE 11.5 mph 19.6 mph 0.01 in   Overcast
2:15 AM 37.4 °F 29.8 °F 37.4 °F 100% 29.94 in 8.0 mi NNE 11.5 mph 18.4 mph 0.01 in   Overcast
2:35 AM 37.4 °F 29.8 °F 37.4 °F 100% 29.94 in 5.0 mi NNE 11.5 mph 17.3 mph 0.01 in   Overcast
2:55 AM 37.4 °F 29.8 °F 37.4 °F 100% 29.94 in 8.0 mi NNE 11.5 mph 20.7 mph 0.02 in   Overcast
3:15 AM 37.4 °F 28.9 °F 37.4 °F 100% 29.93 in 8.0 mi NNE 13.8 mph 19.6 mph N/A   Overcast
3:35 AM 37.4 °F 29.3 °F 35.6 °F 93% 29.92 in 7.0 mi North 12.7 mph 25.3 mph 0.01 in   Overcast
3:55 AM 37.4 °F 29.8 °F 35.6 °F 93% 29.91 in 9.0 mi NNE 11.5 mph 19.6 mph 0.02 in   Overcast
4:15 AM 37.4 °F 28.9 °F 37.4 °F 100% 29.90 in 6.0 mi North 13.8 mph 21.9 mph N/A   Overcast
4:35 AM 37.4 °F 30.3 °F 35.6 °F 93% 29.90 in 10.0 mi North 10.4 mph 21.9 mph N/A   Overcast
5:15 AM 37.4 °F 30.8 °F 33.8 °F 87% 29.91 in 10.0 mi NNE 9.2 mph 28.8 mph N/A   Overcast
5:35 AM 37.4 °F 28.5 °F 35.6 °F 93% 29.91 in 10.0 mi North 15.0 mph 20.7 mph N/A   Overcast
5:55 AM 35.6 °F 27.5 °F 33.8 °F 93% 29.91 in 10.0 mi North 11.5 mph 24.2 mph N/A   Overcast
6:15 AM 35.6 °F 26.6 °F 33.8 °F 93% 29.91 in 10.0 mi NE 13.8 mph 20.7 mph N/A   Overcast
6:35 AM 35.6 °F 27.5 °F 32.0 °F 87% 29.91 in 10.0 mi NNE 11.5 mph 20.7 mph N/A   Overcast
6:55 AM 35.6 °F 27.5 °F 33.8 °F 93% 29.90 in 10.0 mi NNE 11.5 mph 19.6 mph N/A   Overcast
7:15 AM 37.4 °F 30.3 °F 33.8 °F 87% 29.90 in 10.0 mi NNE 10.4 mph 20.7 mph N/A   Overcast
7:35 AM 37.4 °F 30.3 °F 33.8 °F 87% 29.90 in 10.0 mi NNE 10.4 mph 19.6 mph N/A   Overcast
7:55 AM 37.4 °F 28.5 °F 33.8 °F 87% 29.89 in 10.0 mi North 15.0 mph 24.2 mph N/A   Overcast
9:35 AM 37.4 °F 30.3 °F 19.4 °F 48% 29.86 in 10.0 mi North 10.4 mph 24.2 mph N/A   Unknown
9:55 AM 37.4 °F 29.8 °F 30.2 °F 75% 29.87 in 10.0 mi North 11.5 mph 24.2 mph N/A   Overcast
10:15 AM 37.4 °F 29.8 °F 33.8 °F 87% 29.87 in 10.0 mi North 11.5 mph 24.2 mph N/A   Overcast
10:35 AM 37.4 °F 28.9 °F 33.8 °F 87% 29.87 in 10.0 mi North 13.8 mph 21.9 mph N/A   Overcast
10:55 AM 37.4 °F 29.3 °F 33.8 °F 87% 29.87 in 10.0 mi North 12.7 mph 19.6 mph N/A   Overcast
11:15 AM 37.4 °F 28.9 °F 33.8 °F 87% 29.87 in 10.0 mi North 13.8 mph 19.6 mph N/A   Overcast
11:35 AM 37.4 °F 28.9 °F 33.8 °F 87% 29.87 in 10.0 mi North 13.8 mph 20.7 mph N/A   Overcast
11:55 AM 37.4 °F 28.9 °F 33.8 °F 87% 29.87 in 10.0 mi North 13.8 mph 19.6 mph N/A   Overcast
12:15 PM 37.4 °F 29.8 °F 33.8 °F 87% 29.87 in 10.0 mi North 11.5 mph 19.6 mph N/A   Overcast
12:35 PM 37.4 °F 30.3 °F 33.8 °F 87% 29.87 in 10.0 mi North 10.4 mph 23.0 mph N/A   Overcast
12:55 PM 37.4 °F 29.3 °F 35.6 °F 93% 29.86 in 10.0 mi North 12.7 mph 19.6 mph N/A   Overcast
1:15 PM 39.2 °F 32.5 °F 33.8 °F 81% 29.86 in 10.0 mi North 10.4 mph 18.4 mph N/A   Overcast
1:55 PM 39.2 °F 30.8 °F 33.8 °F 81% 29.85 in 10.0 mi North 15.0 mph 21.9 mph N/A   Overcast
2:15 PM 39.2 °F 32.5 °F 35.6 °F 87% 29.85 in 6.0 mi North 10.4 mph 19.6 mph N/A   Overcast
2:35 PM 39.2 °F 32.0 °F 35.6 °F 87% 29.84 in 10.0 mi North 11.5 mph 18.4 mph N/A   Overcast
2:55 PM 39.2 °F 31.2 °F 33.8 °F 81% 29.84 in 10.0 mi NNW 13.8 mph 19.6 mph N/A   Overcast
3:35 PM 39.2 °F 31.6 °F 32.0 °F 75% 29.85 in 10.0 mi North 12.7 mph - N/A   Overcast
3:55 PM 39.2 °F 31.6 °F 32.0 °F 75% 29.85 in 10.0 mi NNW 12.7 mph 19.6 mph N/A   Overcast
4:15 PM 39.2 °F 33.0 °F 32.0 °F 75% 29.85 in 10.0 mi NNW 9.2 mph 18.4 mph N/A   Overcast
4:35 PM 39.2 °F 33.0 °F 32.0 °F 75% 29.86 in 10.0 mi NNW 9.2 mph - N/A   Overcast
4:55 PM 39.2 °F 32.5 °F 32.0 °F 75% 29.86 in 10.0 mi NNW 10.4 mph - N/A   Overcast
5:35 PM 39.2 °F 35.0 °F 32.0 °F 75% 29.87 in 10.0 mi NNW 5.8 mph - N/A   Overcast
5:55 PM 39.2 °F 35.0 °F 32.0 °F 75% 29.87 in 10.0 mi NNW 5.8 mph - N/A   Overcast
6:15 PM 39.2 °F 34.2 °F 32.0 °F 75% 29.88 in 10.0 mi NNW 6.9 mph - N/A   Overcast
6:35 PM 39.2 °F 35.0 °F 32.0 °F 75% 29.88 in 10.0 mi NW 5.8 mph - N/A   Overcast
6:55 PM 37.4 °F 33.8 °F 30.2 °F 75% 29.88 in 10.0 mi NW 4.6 mph - N/A   Mostly Cloudy
7:15 PM 37.4 °F 34.9 °F 30.2 °F 75% 29.89 in 10.0 mi NW 3.5 mph - N/A   Mostly Cloudy
7:55 PM 37.4 °F - 32.0 °F 81% 29.89 in 10.0 mi Calm Calm - N/A   Overcast
8:15 PM 37.4 °F 34.9 °F 33.8 °F 87% 29.89 in 10.0 mi WNW 3.5 mph - N/A   Overcast
8:35 PM 39.2 °F 35.0 °F 33.8 °F 81% 29.88 in 10.0 mi NNW 5.8 mph - N/A   Overcast
8:55 PM 39.2 °F 35.0 °F 33.8 °F 81% 29.88 in 10.0 mi NNW 5.8 mph - N/A   Overcast
9:35 PM 39.2 °F 35.9 °F 35.6 °F 87% 29.88 in 10.0 mi North 4.6 mph - N/A   Overcast
9:55 PM 39.2 °F 37.0 °F 35.6 °F 87% 29.88 in 10.0 mi North 3.5 mph - N/A   Overcast
10:15 PM 41.0 °F 39.0 °F 35.6 °F 81% 29.89 in 10.0 mi North 3.5 mph - N/A   Overcast
10:35 PM 41.0 °F 38.0 °F 35.6 °F 81% 29.88 in 10.0 mi North 4.6 mph - N/A   Overcast
10:55 PM 39.2 °F 35.9 °F 35.6 °F 87% 29.88 in 10.0 mi NNE 4.6 mph - N/A   Overcast
11:15 PM 39.2 °F 35.9 °F 33.8 °F 81% 29.89 in 10.0 mi North 4.6 mph - N/A   Overcast
11:35 PM 39.2 °F - 33.8 °F 81% 29.89 in 10.0 mi Calm Calm - N/A   Overcast